createdAt,value
2019-03-04T00:01:31.234Z,8.40
2019-03-04T00:03:59.834Z,8.30
2019-03-04T00:06:28.441Z,8.30
2019-03-04T00:08:57.085Z,8.30
2019-03-04T00:11:25.657Z,8.40
2019-03-04T00:13:54.205Z,8.40
2019-03-04T00:16:22.880Z,8.30
2019-03-04T00:18:51.402Z,8.30
2019-03-04T00:21:20.009Z,8.30
2019-03-04T00:23:48.556Z,8.30
2019-03-04T00:26:17.128Z,8.30
2019-03-04T00:28:45.681Z,8.20
2019-03-04T00:31:14.269Z,8.20
2019-03-04T00:33:42.889Z,8.20
2019-03-04T00:36:11.493Z,8.30
2019-03-04T00:38:40.018Z,8.30
2019-03-04T00:41:08.636Z,8.40
2019-03-04T00:43:37.233Z,8.40
2019-03-04T00:46:06.345Z,8.40
2019-03-04T00:48:34.871Z,8.40
2019-03-04T00:51:03.516Z,8.50
2019-03-04T00:53:32.085Z,8.50
2019-03-04T00:56:00.637Z,8.60
2019-03-04T00:58:29.217Z,8.60
2019-03-04T01:00:57.797Z,8.50
2019-03-04T01:03:26.416Z,8.60
2019-03-04T01:05:54.994Z,8.50
2019-03-04T01:08:23.546Z,8.40
2019-03-04T01:10:52.123Z,8.40
2019-03-04T01:13:20.976Z,8.40
2019-03-04T01:15:49.523Z,8.40
2019-03-04T01:18:18.074Z,8.40
2019-03-04T01:20:46.678Z,8.30
2019-03-04T01:23:15.230Z,8.30
2019-03-04T01:25:43.801Z,8.20
2019-03-04T01:28:12.359Z,8.20
2019-03-04T01:30:41.097Z,8.20
2019-03-04T01:33:09.695Z,8.10
2019-03-04T01:35:38.293Z,8.10
2019-03-04T01:38:06.821Z,8.10
2019-03-04T01:40:35.389Z,8.10
2019-03-04T01:43:03.990Z,8.10
2019-03-04T01:45:32.573Z,8.10
2019-03-04T01:48:01.114Z,8.10
2019-03-04T01:50:29.752Z,8.00
2019-03-04T01:52:58.306Z,8.00
2019-03-04T01:55:26.882Z,7.90
2019-03-04T01:57:55.512Z,7.90
2019-03-04T02:00:24.158Z,8.00
2019-03-04T02:02:52.719Z,7.90
2019-03-04T02:05:21.758Z,8.00
2019-03-04T02:07:50.309Z,8.00
2019-03-04T02:10:19.924Z,7.90
2019-03-04T02:12:49.086Z,7.90
2019-03-04T02:15:19.844Z,8.00
2019-03-04T02:17:48.520Z,7.90
2019-03-04T02:20:18.250Z,8.00
2019-03-04T02:22:47.363Z,7.90
2019-03-04T02:25:35.779Z,7.90
2019-03-04T02:28:04.404Z,7.90
2019-03-04T02:30:33.041Z,7.90
2019-03-04T02:33:01.619Z,7.90
2019-03-04T02:35:30.218Z,8.00
2019-03-04T02:37:58.795Z,8.00
2019-03-04T02:40:27.344Z,8.00
2019-03-04T02:42:56.016Z,8.00
2019-03-04T02:45:24.578Z,8.00
2019-03-04T02:47:53.161Z,8.00
2019-03-04T02:50:21.769Z,8.00
2019-03-04T02:52:50.338Z,8.00
2019-03-04T02:55:18.935Z,8.00
2019-03-04T02:57:47.505Z,8.00
2019-03-04T03:00:19.547Z,8.10
2019-03-04T03:02:48.110Z,8.10
2019-03-04T03:05:16.735Z,8.00
2019-03-04T03:07:45.342Z,8.00
2019-03-04T03:10:14.733Z,7.90
2019-03-04T03:12:43.450Z,8.00
2019-03-04T03:15:13.709Z,8.00
2019-03-04T03:17:42.291Z,8.10
2019-03-04T03:20:15.632Z,8.20
2019-03-04T03:22:44.228Z,8.30
2019-03-04T03:25:16.957Z,8.30
2019-03-04T03:27:45.524Z,8.30
2019-03-04T03:30:19.373Z,8.20
2019-03-04T03:32:47.948Z,8.20
2019-03-04T03:35:16.512Z,8.10
2019-03-04T03:37:45.196Z,8.20
2019-03-04T03:40:20.871Z,8.20
2019-03-04T03:42:49.508Z,8.20
2019-03-04T03:45:18.251Z,8.30
2019-03-04T03:47:46.901Z,8.40
2019-03-04T03:50:16.571Z,8.50
2019-03-04T03:52:45.983Z,8.50
2019-03-04T03:55:16.092Z,8.50
2019-03-04T03:57:44.787Z,8.60
2019-03-04T04:00:26.253Z,8.70
2019-03-04T04:02:54.908Z,8.80
2019-03-04T04:05:23.543Z,8.90
2019-03-04T04:07:52.109Z,8.90
2019-03-04T04:10:21.629Z,8.90
2019-03-04T04:12:50.271Z,9.10
2019-03-04T04:15:20.115Z,9.00
2019-03-04T04:17:48.649Z,9.10
2019-03-04T04:20:17.339Z,9.00
2019-03-04T04:22:45.946Z,8.90
2019-03-04T04:25:14.890Z,8.90
2019-03-04T04:27:43.573Z,8.80
2019-03-04T04:30:30.245Z,8.80
2019-03-04T04:32:58.857Z,8.80
2019-03-04T04:35:27.475Z,8.90
2019-03-04T04:37:56.072Z,8.80
2019-03-04T04:40:24.650Z,8.70
2019-03-04T04:42:53.237Z,8.70
2019-03-04T04:45:22.057Z,8.70
2019-03-04T04:47:50.644Z,8.80
2019-03-04T04:50:27.329Z,9.00
2019-03-04T04:52:55.969Z,9.00
2019-03-04T04:55:24.530Z,9.00
2019-03-04T04:57:53.061Z,9.10
2019-03-04T05:00:22.233Z,9.20
2019-03-04T05:02:50.916Z,9.10
2019-03-04T05:05:19.541Z,9.10
2019-03-04T05:07:48.122Z,9.20
2019-03-04T05:10:21.005Z,9.30
2019-03-04T05:12:49.578Z,9.50
2019-03-04T05:15:18.201Z,9.40
2019-03-04T05:17:47.518Z,9.40
2019-03-04T05:20:21.290Z,9.60
2019-03-04T05:22:49.865Z,9.50
2019-03-04T05:25:18.413Z,9.40
2019-03-04T05:27:47.033Z,9.40
2019-03-04T05:30:20.549Z,9.40
2019-03-04T05:32:49.129Z,9.40
2019-03-04T05:35:17.889Z,9.50
2019-03-04T05:37:46.461Z,9.50
2019-03-04T05:40:16.950Z,9.60
2019-03-04T05:42:45.629Z,9.60
2019-03-04T05:45:18.458Z,9.50
2019-03-04T05:47:47.049Z,9.70
2019-03-04T05:50:18.315Z,9.60
2019-03-04T05:52:47.028Z,9.50
2019-03-04T05:55:16.165Z,9.50
2019-03-04T05:57:44.782Z,9.50
2019-03-04T06:00:19.449Z,9.30
2019-03-04T06:02:48.978Z,9.50
2019-03-04T06:05:17.751Z,9.50
2019-03-04T06:07:47.998Z,9.50
2019-03-04T06:10:16.668Z,9.60
2019-03-04T06:12:45.405Z,9.60
2019-03-04T06:15:20.929Z,9.50
2019-03-04T06:17:49.655Z,9.50
2019-03-04T06:20:19.668Z,9.50
2019-03-04T06:22:48.349Z,9.70
2019-03-04T06:25:22.677Z,9.50
2019-03-04T06:27:51.268Z,9.50
2019-03-04T06:30:30.818Z,9.60
2019-03-04T06:32:59.387Z,9.80
2019-03-04T06:35:28.004Z,9.90
2019-03-04T06:37:56.594Z,9.90
2019-03-04T06:40:25.375Z,10.00
2019-03-04T06:42:53.967Z,10.10
2019-03-04T06:45:22.566Z,10.10
2019-03-04T06:47:51.214Z,10.10
2019-03-04T06:50:42.622Z,10.20
2019-03-04T06:53:11.298Z,10.30
2019-03-04T06:55:49.030Z,10.40
2019-03-04T06:58:17.618Z,10.40
2019-03-04T07:00:49.421Z,10.30
2019-03-04T07:03:18.791Z,10.30
2019-03-04T07:05:49.510Z,10.60
2019-03-04T07:08:39.469Z,10.50
2019-03-04T07:11:08.098Z,10.50
2019-03-04T07:13:36.767Z,10.50
2019-03-04T07:16:05.343Z,10.40
2019-03-04T07:18:34.044Z,10.40
2019-03-04T07:21:02.578Z,10.30
2019-03-04T07:23:31.158Z,10.40
2019-03-04T07:25:59.725Z,10.40
2019-03-04T07:28:28.464Z,10.40
2019-03-04T07:30:57.009Z,10.40
2019-03-04T07:33:25.593Z,10.40
2019-03-04T07:35:54.154Z,10.30
2019-03-04T07:38:25.822Z,10.10
2019-03-04T07:40:54.445Z,10.30
2019-03-04T07:43:23.041Z,10.10
2019-03-04T07:45:51.605Z,10.10
2019-03-04T07:48:20.185Z,10.20
2019-03-04T07:50:48.779Z,10.30
2019-03-04T07:53:19.096Z,10.40
2019-03-04T07:55:47.900Z,10.10
2019-03-04T07:58:16.441Z,10.10
2019-03-04T08:00:45.039Z,10.00
2019-03-04T08:03:13.605Z,9.80
2019-03-04T08:05:42.217Z,9.90
2019-03-04T08:08:12.939Z,10.10
2019-03-04T08:10:56.635Z,10.00
2019-03-04T08:13:37.011Z,10.10
2019-03-04T08:16:05.901Z,10.00
2019-03-04T08:18:34.479Z,10.00
2019-03-04T08:21:03.068Z,9.90
2019-03-04T08:23:31.662Z,10.00
2019-03-04T08:26:00.257Z,10.30
2019-03-04T08:28:28.907Z,10.40
2019-03-04T08:30:57.564Z,10.40
2019-03-04T08:33:26.118Z,10.50
2019-03-04T08:35:54.668Z,10.70
2019-03-04T08:38:23.277Z,10.80
2019-03-04T08:40:51.868Z,10.70
2019-03-04T08:43:20.489Z,10.70
2019-03-04T08:45:49.086Z,10.90
2019-03-04T08:48:17.625Z,11.00
2019-03-04T08:50:46.309Z,11.30
2019-03-04T08:53:16.099Z,11.50
2019-03-04T08:55:45.497Z,11.40
2019-03-04T08:58:15.926Z,11.50
2019-03-04T09:00:44.779Z,11.70
2019-03-04T09:03:13.300Z,11.80
2019-03-04T09:05:41.888Z,11.70
2019-03-04T09:08:10.441Z,11.30
2019-03-04T09:10:39.208Z,11.30
2019-03-04T09:13:07.943Z,10.80
2019-03-04T09:15:36.533Z,10.70
2019-03-04T09:18:05.093Z,11.30
2019-03-04T09:20:33.744Z,11.40
2019-03-04T09:23:02.327Z,11.40
2019-03-04T09:25:39.838Z,11.30
2019-03-04T09:28:08.490Z,11.50
2019-03-04T09:30:37.143Z,11.30
2019-03-04T09:33:05.767Z,11.40
2019-03-04T09:35:34.376Z,11.50
2019-03-04T09:38:02.910Z,11.50
2019-03-04T09:40:34.062Z,12.00
2019-03-04T09:43:03.546Z,12.60
2019-03-04T09:45:38.690Z,13.00
2019-03-04T09:48:02.537Z,12.80
2019-03-04T09:50:31.575Z,13.10
2019-03-04T09:53:00.110Z,13.00
2019-03-04T09:55:28.715Z,13.00
2019-03-04T09:57:57.401Z,13.60
2019-03-04T10:00:29.103Z,13.80
2019-03-04T10:03:16.077Z,13.80
2019-03-04T10:06:03.997Z,13.30
2019-03-04T10:08:35.621Z,12.60
2019-03-04T10:11:28.156Z,12.30
2019-03-04T10:14:11.916Z,12.50
2019-03-04T10:16:51.913Z,12.70
2019-03-04T10:19:35.648Z,12.80
2019-03-04T10:22:10.194Z,12.40
2019-03-04T10:24:50.897Z,12.60
2019-03-04T10:27:28.380Z,12.10
2019-03-04T10:30:09.114Z,12.00
2019-03-04T10:32:59.449Z,11.80
2019-03-04T10:35:50.495Z,12.00
2019-03-04T10:38:36.566Z,12.00
2019-03-04T10:41:23.420Z,12.00
2019-03-04T10:43:55.062Z,12.20
2019-03-04T10:46:54.023Z,12.30
2019-03-04T10:49:23.057Z,12.40
2019-03-04T10:51:51.622Z,12.50
2019-03-04T10:54:20.197Z,12.30
2019-03-04T10:56:48.778Z,12.50
2019-03-04T10:59:17.414Z,12.80
2019-03-04T11:01:46.092Z,12.80
2019-03-04T11:04:14.692Z,12.70
2019-03-04T11:06:43.306Z,12.60
2019-03-04T11:09:11.865Z,12.70
2019-03-04T11:11:40.562Z,12.50
2019-03-04T11:14:09.194Z,12.80
2019-03-04T11:16:37.790Z,12.90
2019-03-04T11:19:06.415Z,13.00
2019-03-04T11:21:34.992Z,12.90
2019-03-04T11:24:04.955Z,12.50
2019-03-04T11:26:33.669Z,12.60
2019-03-04T11:29:02.228Z,12.80
2019-03-04T11:31:30.850Z,12.70
2019-03-04T11:33:59.417Z,12.90
2019-03-04T11:36:28.132Z,12.80
2019-03-04T11:39:00.172Z,12.90
2019-03-04T11:41:29.228Z,12.80
2019-03-04T11:43:57.853Z,12.60
2019-03-04T11:46:26.498Z,12.50
2019-03-04T11:48:55.090Z,12.50
2019-03-04T11:51:23.761Z,12.20
2019-03-04T11:53:52.327Z,12.20
2019-03-04T11:56:20.953Z,12.30
2019-03-04T11:58:49.473Z,12.60
2019-03-04T12:01:19.883Z,12.60
2019-03-04T12:03:48.422Z,12.60
2019-03-04T12:06:17.085Z,12.70
2019-03-04T12:08:45.649Z,12.50
2019-03-04T12:11:14.233Z,12.50
2019-03-04T12:13:42.793Z,12.30
2019-03-04T12:16:11.370Z,12.30
2019-03-04T12:18:39.958Z,12.30
2019-03-04T12:21:08.537Z,12.20
2019-03-04T12:23:37.233Z,12.20
2019-03-04T12:26:06.051Z,12.10
2019-03-04T12:28:34.593Z,12.20
2019-03-04T12:31:03.294Z,12.30
2019-03-04T12:33:31.871Z,12.30
2019-03-04T12:36:00.509Z,11.90
2019-03-04T12:38:29.096Z,11.80
2019-03-04T12:40:57.745Z,11.80
2019-03-04T12:43:26.313Z,11.70
2019-03-04T12:45:54.885Z,11.70
2019-03-04T12:48:23.441Z,11.70
2019-03-04T12:50:52.031Z,11.70
2019-03-04T12:53:20.670Z,11.90
2019-03-04T12:55:49.243Z,11.90
2019-03-04T12:58:17.817Z,12.00
2019-03-04T13:00:46.368Z,11.90
2019-03-04T13:03:17.545Z,11.50
2019-03-04T13:05:46.163Z,10.90
2019-03-04T13:08:14.770Z,10.70
2019-03-04T13:10:43.321Z,10.70
2019-03-04T13:13:11.930Z,10.90
2019-03-04T13:15:40.558Z,11.10
2019-03-04T13:18:11.623Z,11.20
2019-03-04T13:20:40.196Z,11.20
2019-03-04T13:23:09.168Z,11.20
2019-03-04T13:25:37.721Z,11.10
2019-03-04T13:28:08.495Z,11.10
2019-03-04T13:30:39.247Z,11.20
2019-03-04T13:33:07.824Z,11.10
2019-03-04T13:35:38.537Z,11.10
2019-03-04T13:38:07.208Z,11.10
2019-03-04T13:40:35.877Z,11.00
2019-03-04T13:43:04.803Z,11.00
2019-03-04T13:45:33.422Z,11.00
2019-03-04T13:48:02.085Z,11.00
2019-03-04T13:50:31.941Z,11.00
2019-03-04T13:53:00.485Z,11.00
2019-03-04T13:55:29.112Z,10.90
2019-03-04T13:57:57.769Z,10.90
2019-03-04T14:00:39.985Z,10.90
2019-03-04T14:03:11.778Z,11.00
2019-03-04T14:05:40.416Z,10.90
2019-03-04T14:08:08.994Z,10.90
2019-03-04T14:10:42.915Z,10.90
2019-03-04T14:13:11.559Z,10.90
2019-03-04T14:15:42.631Z,10.80
2019-03-04T14:18:11.260Z,10.80
2019-03-04T14:20:39.879Z,10.70
2019-03-04T14:23:08.521Z,10.70
2019-03-04T14:25:37.210Z,10.70
2019-03-04T14:28:06.568Z,10.70
2019-03-04T14:30:35.139Z,10.70
2019-03-04T14:33:03.705Z,10.80
2019-03-04T14:35:32.297Z,10.80
2019-03-04T14:38:00.978Z,10.80
2019-03-04T14:40:29.601Z,10.90
2019-03-04T14:42:58.249Z,10.80
2019-03-04T14:45:27.845Z,10.80
2019-03-04T14:47:56.448Z,10.80
2019-03-04T14:50:25.069Z,10.80
2019-03-04T14:52:53.751Z,10.80
2019-03-04T14:55:31.074Z,10.60
2019-03-04T14:58:01.883Z,10.70
2019-03-04T15:00:33.200Z,10.70
2019-03-04T15:03:01.787Z,10.70
2019-03-04T15:05:30.450Z,10.70
2019-03-04T15:07:59.045Z,10.60
2019-03-04T15:10:27.618Z,10.50
2019-03-04T15:12:56.264Z,10.50
2019-03-04T15:15:28.956Z,10.50
2019-03-04T15:17:57.642Z,10.50
2019-03-04T15:20:33.289Z,10.50
2019-03-04T15:23:01.219Z,10.50
2019-03-04T15:25:38.471Z,10.70
2019-03-04T15:28:18.891Z,10.80
2019-03-04T15:30:49.960Z,10.80
2019-03-04T15:33:18.994Z,10.90
2019-03-04T15:35:47.898Z,10.90
2019-03-04T15:38:16.491Z,10.70
2019-03-04T15:40:45.162Z,10.50
2019-03-04T15:43:14.066Z,10.40
2019-03-04T15:45:44.332Z,10.30
2019-03-04T15:48:13.582Z,10.30
2019-03-04T15:50:42.120Z,10.30
2019-03-04T15:53:10.701Z,10.40
2019-03-04T15:55:39.353Z,10.20
2019-03-04T15:58:08.051Z,10.20
2019-03-04T16:00:36.669Z,10.20
2019-03-04T16:03:05.790Z,10.10
2019-03-04T16:05:34.414Z,10.20
2019-03-04T16:08:07.533Z,10.20
2019-03-04T16:10:38.969Z,10.10
2019-03-04T16:13:08.858Z,10.10
2019-03-04T16:15:45.858Z,9.40
2019-03-04T16:18:14.774Z,8.80
2019-03-04T16:20:43.598Z,8.40
2019-03-04T16:23:12.245Z,8.20
2019-03-04T16:25:41.007Z,8.10
2019-03-04T16:28:12.668Z,8.00
2019-03-04T16:30:41.885Z,8.00
2019-03-04T16:33:10.486Z,8.00
2019-03-04T16:35:39.134Z,7.90
2019-03-04T16:38:08.249Z,7.80
2019-03-04T16:40:36.828Z,7.80
2019-03-04T16:43:05.689Z,7.80
2019-03-04T16:45:34.291Z,7.80
2019-03-04T16:48:02.847Z,7.80
2019-03-04T16:50:43.200Z,7.90
2019-03-04T16:53:15.144Z,7.80
2019-03-04T16:55:43.709Z,7.70
2019-03-04T16:58:12.630Z,7.70
2019-03-04T17:00:41.898Z,7.70
2019-03-04T17:03:10.473Z,7.60
2019-03-04T17:05:39.018Z,7.60
2019-03-04T17:08:07.569Z,7.60
2019-03-04T17:10:36.145Z,7.70
2019-03-04T17:13:04.694Z,7.60
2019-03-04T17:15:33.265Z,7.70
2019-03-04T17:18:01.820Z,7.70
2019-03-04T17:20:30.453Z,7.60
2019-03-04T17:22:59.001Z,7.50
2019-03-04T17:25:27.574Z,7.50
2019-03-04T17:27:56.294Z,7.50
2019-03-04T17:30:26.979Z,7.50
2019-03-04T17:32:55.673Z,7.60
2019-03-04T17:35:24.941Z,7.60
2019-03-04T17:37:53.493Z,7.70
2019-03-04T17:40:26.369Z,7.70
2019-03-04T17:42:55.006Z,7.70
2019-03-04T17:45:24.912Z,7.70
2019-03-04T17:47:53.532Z,7.80
2019-03-04T17:50:36.383Z,7.80
2019-03-04T17:53:10.201Z,7.70
2019-03-04T17:55:38.782Z,7.70
2019-03-04T17:58:07.412Z,7.70
2019-03-04T18:00:37.830Z,7.60
2019-03-04T18:03:06.453Z,7.40
2019-03-04T18:05:35.025Z,6.00
2019-03-04T18:08:03.594Z,5.20
2019-03-04T18:10:32.173Z,4.90
2019-03-04T18:13:03.670Z,4.80
2019-03-04T18:15:37.872Z,4.70
2019-03-04T18:18:06.421Z,4.70
2019-03-04T18:20:35.031Z,4.60
2019-03-04T18:23:03.551Z,4.60
2019-03-04T18:25:41.345Z,4.70
2019-03-04T18:28:30.961Z,4.70
2019-03-04T18:31:17.383Z,4.80
2019-03-04T18:34:07.008Z,4.80
2019-03-04T18:36:47.586Z,4.80
2019-03-04T18:39:21.750Z,4.80
2019-03-04T18:42:08.432Z,4.80
2019-03-04T18:45:16.863Z,4.80
2019-03-04T18:47:51.060Z,4.80
2019-03-04T18:50:19.681Z,4.80
2019-03-04T18:52:48.191Z,4.80
2019-03-04T18:55:16.757Z,4.70
2019-03-04T18:57:45.317Z,4.70
2019-03-04T19:00:16.957Z,4.70
2019-03-04T19:02:45.505Z,4.70
2019-03-04T19:05:14.077Z,4.70
2019-03-04T19:07:42.628Z,4.70
2019-03-04T19:10:12.637Z,4.60
2019-03-04T19:12:41.185Z,4.60
2019-03-04T19:15:11.300Z,4.60
2019-03-04T19:17:39.918Z,4.50
2019-03-04T19:20:16.425Z,4.50
2019-03-04T19:22:45.057Z,4.50
2019-03-04T19:25:14.378Z,4.50
2019-03-04T19:27:42.964Z,4.60
2019-03-04T19:30:13.480Z,4.60
2019-03-04T19:32:42.109Z,4.60
2019-03-04T19:35:12.916Z,4.60
2019-03-04T19:37:41.563Z,4.60
2019-03-04T19:40:15.441Z,4.50
2019-03-04T19:42:44.062Z,4.50
2019-03-04T19:45:20.777Z,4.50
2019-03-04T19:47:49.333Z,4.50
2019-03-04T19:50:17.917Z,4.50
2019-03-04T19:52:46.605Z,4.50
2019-03-04T19:55:17.113Z,4.40
2019-03-04T19:57:46.201Z,4.40
2019-03-04T20:00:25.196Z,4.50
2019-03-04T20:02:54.544Z,4.40
2019-03-04T20:05:23.739Z,4.40
2019-03-04T20:07:52.347Z,4.50
2019-03-04T20:10:21.258Z,4.40
2019-03-04T20:12:49.994Z,4.40
2019-03-04T20:15:27.254Z,4.40
2019-03-04T20:17:56.659Z,4.40
2019-03-04T20:20:25.664Z,4.30
2019-03-04T20:22:54.210Z,4.30
2019-03-04T20:25:23.934Z,4.20
2019-03-04T20:27:52.480Z,4.20
2019-03-04T20:30:22.287Z,4.20
2019-03-04T20:32:50.834Z,4.30
2019-03-04T20:35:20.041Z,4.30
2019-03-04T20:38:00.741Z,4.40
2019-03-04T20:40:29.310Z,4.30
2019-03-04T20:42:58.038Z,4.30
2019-03-04T20:45:26.680Z,4.30
2019-03-04T20:47:55.235Z,4.30
2019-03-04T20:50:27.559Z,4.40
2019-03-04T20:52:56.108Z,4.30
2019-03-04T20:55:24.678Z,4.30
2019-03-04T20:57:53.298Z,4.30
2019-03-04T21:00:28.681Z,4.30
2019-03-04T21:02:57.710Z,4.20
2019-03-04T21:05:26.453Z,4.20
2019-03-04T21:07:55.189Z,4.20
2019-03-04T21:10:23.971Z,4.20
2019-03-04T21:12:53.666Z,4.20
2019-03-04T21:15:22.306Z,4.20
2019-03-04T21:17:50.922Z,4.30
2019-03-04T21:20:19.973Z,4.20
2019-03-04T21:22:48.708Z,4.20
2019-03-04T21:25:39.505Z,4.10
2019-03-04T21:28:36.907Z,4.20
2019-03-04T21:31:11.494Z,4.20
2019-03-04T21:34:07.417Z,4.10
2019-03-04T21:36:45.126Z,4.10
2019-03-04T21:39:18.572Z,4.10
2019-03-04T21:41:50.224Z,4.20
2019-03-04T21:44:55.082Z,4.20
2019-03-04T21:47:41.643Z,4.00
2019-03-04T21:50:13.274Z,4.00
2019-03-04T21:52:50.830Z,4.00
2019-03-04T21:55:28.520Z,4.00
2019-03-04T21:57:57.098Z,4.10
2019-03-04T22:00:29.849Z,4.20
2019-03-04T22:03:07.467Z,4.30
2019-03-04T22:05:37.483Z,4.20
2019-03-04T22:08:06.201Z,4.10
2019-03-04T22:10:34.825Z,4.20
2019-03-04T22:13:03.402Z,4.10
2019-03-04T22:15:32.101Z,4.10
2019-03-04T22:18:00.737Z,4.20
2019-03-04T22:20:29.354Z,4.30
2019-03-04T22:22:57.937Z,4.20
2019-03-04T22:25:26.486Z,4.10
2019-03-04T22:27:55.320Z,4.10
2019-03-04T22:30:23.957Z,4.30
2019-03-04T22:32:52.519Z,4.30
2019-03-04T22:35:21.166Z,4.40
2019-03-04T22:37:49.787Z,4.40
2019-03-04T22:40:23.050Z,4.40
2019-03-04T22:42:51.630Z,4.20
2019-03-04T22:45:21.328Z,4.30
2019-03-04T22:47:51.149Z,4.30
2019-03-04T22:50:21.334Z,4.30
2019-03-04T22:52:50.405Z,4.30
2019-03-04T22:55:21.949Z,4.20
2019-03-04T22:57:50.513Z,4.30
2019-03-04T23:00:50.091Z,4.30
2019-03-04T23:03:20.207Z,4.20
2019-03-04T23:06:09.874Z,4.20
2019-03-04T23:08:38.438Z,4.20
2019-03-04T23:11:07.049Z,4.20
2019-03-04T23:13:51.084Z,4.30
2019-03-04T23:16:22.529Z,4.30
2019-03-04T23:18:51.158Z,4.20
2019-03-04T23:21:19.734Z,4.20
2019-03-04T23:23:48.305Z,4.20
2019-03-04T23:26:16.884Z,4.20
2019-03-04T23:28:45.439Z,4.10
2019-03-04T23:31:13.984Z,4.20
2019-03-04T23:33:42.557Z,4.10
2019-03-04T23:36:11.115Z,4.10
2019-03-04T23:38:39.685Z,4.10
2019-03-04T23:41:08.235Z,4.10
2019-03-04T23:43:36.810Z,4.10
2019-03-04T23:46:05.429Z,4.10
2019-03-04T23:48:34.003Z,4.10
2019-03-04T23:51:02.557Z,4.10
2019-03-04T23:53:31.376Z,4.20
2019-03-04T23:55:59.990Z,4.10
2019-03-04T23:58:28.566Z,4.10
